createdAt,value
2022-11-13T00:02:45.835Z,33.08
2022-11-13T00:05:32.483Z,35.75
2022-11-13T00:08:19.147Z,34.88
2022-11-13T00:11:07.870Z,31.00
2022-11-13T00:13:55.869Z,28.40
2022-11-13T00:16:42.586Z,30.20
2022-11-13T00:19:29.312Z,30.38
2022-11-13T00:22:16.456Z,27.63
2022-11-13T00:25:04.207Z,32.33
2022-11-13T00:27:50.564Z,26.45
2022-11-13T00:30:38.533Z,30.38
2022-11-13T00:33:45.569Z,36.00
2022-11-13T00:36:32.287Z,30.75
2022-11-13T00:39:18.993Z,31.65
2022-11-13T00:42:05.480Z,33.33
2022-11-13T00:44:51.852Z,30.95
2022-11-13T00:47:39.867Z,31.00
2022-11-13T00:50:26.759Z,31.10
2022-11-13T00:53:17.953Z,31.10
2022-11-13T00:56:05.110Z,30.67
2022-11-13T00:58:51.495Z,35.30
2022-11-13T01:01:38.364Z,34.42
2022-11-13T01:04:26.514Z,31.73
2022-11-13T01:07:13.589Z,29.10
2022-11-13T01:10:01.071Z,29.75
2022-11-13T01:12:47.948Z,34.55
2022-11-13T01:15:34.933Z,31.70
2022-11-13T01:18:21.539Z,32.13
2022-11-13T01:21:16.100Z,34.45
2022-11-13T01:24:02.582Z,31.98
2022-11-13T01:26:48.962Z,30.65
2022-11-13T01:29:35.617Z,36.28
2022-11-13T01:32:22.263Z,32.20
2022-11-13T01:35:09.088Z,34.95
2022-11-13T01:37:57.155Z,34.00
2022-11-13T01:40:46.459Z,37.25
2022-11-13T01:43:35.347Z,36.70
2022-11-13T01:46:26.141Z,38.45
2022-11-13T01:49:30.421Z,38.33
2022-11-13T01:52:20.421Z,35.90
2022-11-13T01:55:12.638Z,39.78
2022-11-13T01:57:59.953Z,27.45
2022-11-13T02:00:47.445Z,35.63
2022-11-13T02:03:33.810Z,31.92
2022-11-13T02:06:22.515Z,33.05
2022-11-13T02:09:10.816Z,31.42
2022-11-13T02:11:59.291Z,32.00
2022-11-13T02:14:50.350Z,31.45
2022-11-13T02:17:40.727Z,33.42
2022-11-13T02:20:38.688Z,32.05
2022-11-13T02:23:35.603Z,33.50
2022-11-13T02:26:26.282Z,37.67
2022-11-13T02:29:12.955Z,25.20
2022-11-13T02:31:59.469Z,29.45
2022-11-13T02:34:45.871Z,31.88
2022-11-13T02:37:32.552Z,33.90
2022-11-13T02:40:20.034Z,26.38
2022-11-13T02:43:07.884Z,36.40
2022-11-13T02:45:54.961Z,29.73
2022-11-13T02:48:41.823Z,28.40
2022-11-13T02:51:28.242Z,32.65
2022-11-13T02:54:17.067Z,32.15
2022-11-13T02:57:03.971Z,29.92
2022-11-13T02:59:52.092Z,31.25
2022-11-13T03:02:40.486Z,31.83
2022-11-13T03:05:26.964Z,36.17
2022-11-13T03:08:15.623Z,37.05
2022-11-13T03:11:08.729Z,38.65
2022-11-13T03:13:55.249Z,28.55
2022-11-13T03:16:43.355Z,35.53
2022-11-13T03:19:30.968Z,34.45
2022-11-13T03:22:17.656Z,36.67
2022-11-13T03:25:09.861Z,34.65
2022-11-13T03:27:57.122Z,30.73
2022-11-13T03:30:43.962Z,31.80
2022-11-13T03:33:32.328Z,29.10
2022-11-13T03:36:18.867Z,32.55
2022-11-13T03:39:05.797Z,33.50
2022-11-13T03:41:52.282Z,32.00
2022-11-13T03:44:38.779Z,34.67
2022-11-13T03:47:25.440Z,36.58
2022-11-13T03:50:13.644Z,39.40
2022-11-13T03:53:00.349Z,36.65
2022-11-13T03:55:47.225Z,41.45
2022-11-13T03:58:37.316Z,39.70
2022-11-13T04:01:26.540Z,31.00
2022-11-13T04:04:13.372Z,43.10
2022-11-13T04:07:01.063Z,40.75
2022-11-13T04:09:47.543Z,37.55
2022-11-13T04:12:36.092Z,34.53
2022-11-13T04:15:22.935Z,32.15
2022-11-13T04:18:09.471Z,40.30
2022-11-13T04:21:00.364Z,33.30
2022-11-13T04:23:48.311Z,37.85
2022-11-13T04:26:34.724Z,38.15
2022-11-13T04:29:21.274Z,37.03
2022-11-13T04:32:07.799Z,36.10
2022-11-13T04:34:54.455Z,35.25
2022-11-13T04:37:41.225Z,35.20
2022-11-13T04:40:29.553Z,41.78
2022-11-13T04:43:14.922Z,39.20
2022-11-13T04:46:01.543Z,35.05
2022-11-13T04:48:48.354Z,33.22
2022-11-13T04:51:34.975Z,35.95
2022-11-13T04:54:27.391Z,40.33
2022-11-13T04:57:16.784Z,40.00
2022-11-13T05:00:03.478Z,32.40
2022-11-13T05:02:50.015Z,37.88
2022-11-13T05:05:36.272Z,41.55
2022-11-13T05:08:22.821Z,33.78
2022-11-13T05:11:09.600Z,36.90
2022-11-13T05:14:03.089Z,36.65
2022-11-13T05:16:50.006Z,34.95
2022-11-13T05:19:36.713Z,36.05
2022-11-13T05:22:23.354Z,36.47
2022-11-13T05:25:10.136Z,38.90
2022-11-13T05:27:58.579Z,30.73
2022-11-13T05:30:46.927Z,36.03
2022-11-13T05:33:33.673Z,31.60
2022-11-13T05:36:20.919Z,36.55
2022-11-13T05:39:08.035Z,36.65
2022-11-13T05:41:54.712Z,32.55
2022-11-13T05:44:41.297Z,39.50
2022-11-13T05:47:29.466Z,36.80
2022-11-13T05:50:16.674Z,37.33
2022-11-13T05:53:03.318Z,40.63
2022-11-13T05:55:50.086Z,36.13
2022-11-13T05:58:37.096Z,39.03
2022-11-13T06:01:27.326Z,34.92
2022-11-13T06:04:15.599Z,36.75
2022-11-13T06:07:02.385Z,40.17
2022-11-13T06:09:49.075Z,42.20
2022-11-13T06:12:38.136Z,35.13
2022-11-13T06:15:24.700Z,38.58
2022-11-13T06:18:11.553Z,40.00
2022-11-13T06:21:03.692Z,38.97
2022-11-13T06:23:50.286Z,36.13
2022-11-13T06:26:39.651Z,38.50
2022-11-13T06:29:26.423Z,41.70
2022-11-13T06:32:13.566Z,48.42
2022-11-13T06:34:59.871Z,44.38
2022-11-13T06:37:48.097Z,46.63
2022-11-13T06:40:34.485Z,43.20
2022-11-13T06:43:21.124Z,43.55
2022-11-13T06:46:11.051Z,45.42
2022-11-13T06:48:57.922Z,43.05
2022-11-13T06:51:44.673Z,42.90
2022-11-13T06:54:32.614Z,47.47
2022-11-13T06:57:19.096Z,46.13
2022-11-13T07:00:07.230Z,36.63
2022-11-13T07:02:56.066Z,40.88
2022-11-13T07:05:42.659Z,39.60
2022-11-13T07:08:29.767Z,37.78
2022-11-13T07:11:19.684Z,42.25
2022-11-13T07:14:06.160Z,39.85
2022-11-13T07:17:10.030Z,44.95
2022-11-13T07:19:57.075Z,50.42
2022-11-13T07:22:43.781Z,40.92
2022-11-13T07:25:31.202Z,43.70
2022-11-13T07:28:18.797Z,43.63
2022-11-13T07:31:06.068Z,42.28
2022-11-13T07:33:52.934Z,39.30
2022-11-13T07:36:39.368Z,45.25
2022-11-13T07:39:26.061Z,43.22
2022-11-13T07:42:13.143Z,37.40
2022-11-13T07:45:01.151Z,42.90
2022-11-13T07:47:47.579Z,39.35
2022-11-13T07:50:36.501Z,47.00
2022-11-13T07:53:24.041Z,45.45
2022-11-13T07:56:10.445Z,39.15
2022-11-13T07:58:57.142Z,44.30
2022-11-13T08:01:45.030Z,42.92
2022-11-13T08:04:32.056Z,47.97
2022-11-13T08:07:18.672Z,35.15
2022-11-13T08:10:05.938Z,43.50
2022-11-13T08:12:59.684Z,46.92
2022-11-13T08:15:46.022Z,46.10
2022-11-13T08:18:36.426Z,38.05
2022-11-13T08:21:25.550Z,38.40
2022-11-13T08:24:12.518Z,43.10
2022-11-13T08:26:59.173Z,41.88
2022-11-13T08:29:45.808Z,40.50
2022-11-13T08:32:32.609Z,46.60
2022-11-13T08:35:25.254Z,48.75
2022-11-13T08:38:17.661Z,39.95
2022-11-13T08:41:09.311Z,45.97
2022-11-13T08:43:56.582Z,38.97
2022-11-13T08:46:43.274Z,37.75
2022-11-13T08:49:29.898Z,42.20
2022-11-13T08:52:17.960Z,35.25
2022-11-13T08:55:04.872Z,35.50
2022-11-13T08:57:51.678Z,32.03
2022-11-13T09:00:38.298Z,37.22
2022-11-13T09:03:24.971Z,37.20
2022-11-13T09:06:11.728Z,39.47
2022-11-13T09:08:59.906Z,43.90
2022-11-13T09:11:46.702Z,38.78
2022-11-13T09:14:33.020Z,34.90
2022-11-13T09:17:19.790Z,36.80
2022-11-13T09:20:12.680Z,35.05
2022-11-13T09:23:01.467Z,33.30
2022-11-13T09:25:50.057Z,33.05
2022-11-13T09:28:36.716Z,32.15
2022-11-13T09:31:23.392Z,35.00
2022-11-13T09:34:10.128Z,33.15
2022-11-13T09:37:00.033Z,30.55
2022-11-13T09:39:46.763Z,32.15
2022-11-13T09:42:37.926Z,31.38
2022-11-13T09:45:24.917Z,34.85
2022-11-13T09:48:21.954Z,36.15
2022-11-13T09:51:14.426Z,34.30
2022-11-13T09:54:05.649Z,35.38
2022-11-13T09:56:58.623Z,30.52
2022-11-13T09:59:52.494Z,32.60
2022-11-13T10:02:51.217Z,31.20
2022-11-13T10:05:44.058Z,30.42
2022-11-13T10:08:36.768Z,39.15
2022-11-13T10:11:32.743Z,37.40
2022-11-13T10:14:23.525Z,39.35
2022-11-13T10:17:19.728Z,32.65
2022-11-13T10:20:13.137Z,34.92
2022-11-13T10:23:07.973Z,34.72
2022-11-13T10:26:05.466Z,35.10
2022-11-13T10:29:02.500Z,34.50
2022-11-13T10:31:51.058Z,39.47
2022-11-13T10:34:40.755Z,34.22
2022-11-13T10:37:41.007Z,42.45
2022-11-13T10:40:28.201Z,42.58
2022-11-13T10:43:17.964Z,37.83
2022-11-13T10:46:06.648Z,41.50
2022-11-13T10:48:53.727Z,34.53
2022-11-13T10:51:42.742Z,37.13
2022-11-13T10:54:32.728Z,44.97
2022-11-13T10:57:30.084Z,37.35
2022-11-13T11:00:28.247Z,42.60
2022-11-13T11:03:17.373Z,46.40
2022-11-13T11:06:05.749Z,45.00
2022-11-13T11:08:55.013Z,38.88
2022-11-13T11:11:59.052Z,43.60
2022-11-13T11:15:16.533Z,44.83
2022-11-13T11:18:05.897Z,42.60
2022-11-13T11:20:55.313Z,37.15
2022-11-13T11:23:49.477Z,39.65
2022-11-13T11:26:43.713Z,33.00
2022-11-13T11:29:38.412Z,39.35
2022-11-13T11:32:30.620Z,40.72
2022-11-13T11:35:20.795Z,34.10
2022-11-13T11:38:14.911Z,33.35
2022-11-13T11:41:14.984Z,36.75
2022-11-13T11:44:12.877Z,28.25
2022-11-13T11:47:00.123Z,28.58
2022-11-13T11:49:46.806Z,36.17
2022-11-13T11:52:49.079Z,36.53
2022-11-13T11:56:01.302Z,35.08
2022-11-13T11:59:02.731Z,32.65
2022-11-13T12:02:25.611Z,32.28
2022-11-13T12:05:24.558Z,30.83
2022-11-13T12:08:22.197Z,30.33
2022-11-13T12:11:15.333Z,37.25
2022-11-13T12:14:13.627Z,37.63
2022-11-13T12:17:16.819Z,29.83
2022-11-13T12:20:26.078Z,28.95
2022-11-13T12:23:31.891Z,35.88
2022-11-13T12:26:25.974Z,31.33
2022-11-13T12:29:25.505Z,33.00
2022-11-13T12:32:25.551Z,37.97
2022-11-13T12:35:17.777Z,32.65
2022-11-13T12:38:14.633Z,35.20
2022-11-13T12:41:10.699Z,27.50
2022-11-13T12:44:23.827Z,35.28
2022-11-13T12:47:11.039Z,36.72
2022-11-13T12:50:02.481Z,33.35
2022-11-13T12:53:00.171Z,33.67
2022-11-13T12:55:59.917Z,38.13
2022-11-13T12:59:28.404Z,37.13
2022-11-13T13:02:30.152Z,38.55
2022-11-13T13:05:36.258Z,35.22
2022-11-13T13:09:13.406Z,33.15
2022-11-13T13:12:07.887Z,31.80
2022-11-13T13:15:12.871Z,34.78
2022-11-13T13:18:10.032Z,33.95
2022-11-13T13:21:06.185Z,32.75
2022-11-13T13:23:56.761Z,40.47
2022-11-13T13:26:48.295Z,31.15
2022-11-13T13:29:38.486Z,35.85
2022-11-13T13:32:32.601Z,37.88
2022-11-13T13:35:24.811Z,35.65
2022-11-13T13:38:19.449Z,42.17
2022-11-13T13:41:22.730Z,40.50
2022-11-13T13:44:46.923Z,32.92
2022-11-13T13:47:38.944Z,33.20
2022-11-13T13:50:27.221Z,33.83
2022-11-13T13:53:19.435Z,32.95
2022-11-13T13:56:12.320Z,40.63
2022-11-13T13:59:00.373Z,37.95
2022-11-13T14:01:58.316Z,36.47
2022-11-13T14:04:47.090Z,32.28
2022-11-13T14:07:35.834Z,32.58
2022-11-13T14:10:24.017Z,37.55
2022-11-13T14:13:13.964Z,35.83
2022-11-13T14:16:02.945Z,39.60
2022-11-13T14:18:51.155Z,41.30
2022-11-13T14:21:37.894Z,31.27
2022-11-13T14:24:28.023Z,36.88
2022-11-13T14:27:19.713Z,34.38
2022-11-13T14:30:10.889Z,35.58
2022-11-13T14:33:00.079Z,35.85
2022-11-13T14:35:55.924Z,35.45
2022-11-13T14:38:50.547Z,31.83
2022-11-13T14:41:41.586Z,30.23
2022-11-13T14:44:31.953Z,34.13
2022-11-13T14:47:25.146Z,41.80
2022-11-13T14:50:22.434Z,34.53
2022-11-13T14:53:11.513Z,35.45
2022-11-13T14:56:01.315Z,31.00
2022-11-13T14:58:48.516Z,33.80
2022-11-13T15:01:35.793Z,35.10
2022-11-13T15:04:22.482Z,35.78
2022-11-13T15:07:24.831Z,38.15
2022-11-13T15:10:15.638Z,35.08
2022-11-13T15:13:06.495Z,36.85
2022-11-13T15:15:52.895Z,34.00
2022-11-13T15:18:47.660Z,39.83
2022-11-13T15:21:34.563Z,36.78
2022-11-13T15:24:21.207Z,41.75
2022-11-13T15:27:13.912Z,34.55
2022-11-13T15:30:00.656Z,35.63
2022-11-13T15:32:51.112Z,32.55
2022-11-13T15:35:37.838Z,32.55
2022-11-13T15:38:24.653Z,39.15
2022-11-13T15:41:14.454Z,31.83
2022-11-13T15:44:05.872Z,38.35
2022-11-13T15:46:52.852Z,33.80
2022-11-13T15:49:43.460Z,38.70
2022-11-13T15:52:41.170Z,37.72
2022-11-13T15:55:30.496Z,32.45
2022-11-13T15:58:17.126Z,36.58
2022-11-13T16:01:05.320Z,36.13
2022-11-13T16:03:52.110Z,35.40
2022-11-13T16:06:38.753Z,34.10
2022-11-13T16:09:25.213Z,30.77
2022-11-13T16:12:12.766Z,36.58
2022-11-13T16:14:59.291Z,32.80
2022-11-13T16:17:50.463Z,35.38
2022-11-13T16:20:43.322Z,42.17
2022-11-13T16:23:29.976Z,35.78
2022-11-13T16:26:19.922Z,40.60
2022-11-13T16:29:17.509Z,35.80
2022-11-13T16:32:04.228Z,41.13
2022-11-13T16:34:54.417Z,44.00
2022-11-13T16:37:40.969Z,34.17
2022-11-13T16:40:28.151Z,39.83
2022-11-13T16:43:14.560Z,38.55
2022-11-13T16:46:01.900Z,30.85
2022-11-13T16:48:48.978Z,35.08
2022-11-13T16:51:36.699Z,38.25
2022-11-13T16:54:23.527Z,32.00
2022-11-13T16:57:13.400Z,37.13
2022-11-13T17:00:00.172Z,31.80
2022-11-13T17:02:47.053Z,40.38
2022-11-13T17:05:36.266Z,40.80
2022-11-13T17:08:27.502Z,38.42
2022-11-13T17:11:14.955Z,42.90
2022-11-13T17:14:02.639Z,39.80
2022-11-13T17:16:49.378Z,42.78
2022-11-13T17:19:40.693Z,45.67
2022-11-13T17:22:27.283Z,39.88
2022-11-13T17:25:15.613Z,38.72
2022-11-13T17:28:01.964Z,30.98
2022-11-13T17:30:48.613Z,44.35
2022-11-13T17:33:36.438Z,38.20
2022-11-13T17:36:23.344Z,39.83
2022-11-13T17:39:09.766Z,44.10
2022-11-13T17:41:58.011Z,43.00
2022-11-13T17:44:44.632Z,45.10
2022-11-13T17:47:33.946Z,41.85
2022-11-13T17:50:20.730Z,45.28
2022-11-13T17:53:08.202Z,40.63
2022-11-13T17:55:58.096Z,43.65
2022-11-13T17:58:46.721Z,38.25
2022-11-13T18:01:33.690Z,48.08
2022-11-13T18:04:20.433Z,49.10
2022-11-13T18:07:07.530Z,49.75
2022-11-13T18:09:53.849Z,41.75
2022-11-13T18:12:40.658Z,48.47
2022-11-13T18:15:28.582Z,45.20
2022-11-13T18:18:15.638Z,43.25
2022-11-13T18:21:21.682Z,34.55
2022-11-13T18:24:12.935Z,36.13
2022-11-13T18:27:01.330Z,36.20
2022-11-13T18:29:48.021Z,41.00
2022-11-13T18:32:36.504Z,40.03
2022-11-13T18:35:23.261Z,35.30
2022-11-13T18:38:09.992Z,32.97
2022-11-13T18:41:02.017Z,38.28
2022-11-13T18:43:50.239Z,37.20
2022-11-13T18:46:38.874Z,42.35
2022-11-13T18:49:26.695Z,33.90
2022-11-13T18:52:13.674Z,33.67
2022-11-13T18:55:00.136Z,34.88
2022-11-13T18:57:46.938Z,32.28
2022-11-13T19:00:33.346Z,31.08
2022-11-13T19:03:20.339Z,35.50
2022-11-13T19:06:09.927Z,31.27
2022-11-13T19:08:57.637Z,30.13
2022-11-13T19:11:45.389Z,31.42
2022-11-13T19:14:31.883Z,35.05
2022-11-13T19:17:19.860Z,32.40
2022-11-13T19:20:07.760Z,35.13
2022-11-13T19:22:56.127Z,29.50
2022-11-13T19:25:42.555Z,37.38
2022-11-13T19:28:29.981Z,31.38
2022-11-13T19:31:18.624Z,34.60
2022-11-13T19:34:07.135Z,35.58
2022-11-13T19:36:54.850Z,29.42
2022-11-13T19:39:43.244Z,32.42
2022-11-13T19:42:30.077Z,28.90
2022-11-13T19:45:16.857Z,34.90
2022-11-13T19:48:03.375Z,31.80
2022-11-13T19:50:51.281Z,34.38
2022-11-13T19:53:38.815Z,36.75
2022-11-13T19:56:28.173Z,29.20
2022-11-13T19:59:14.806Z,33.63
2022-11-13T20:02:01.423Z,31.33
2022-11-13T20:04:47.994Z,35.33
2022-11-13T20:07:34.825Z,37.45
2022-11-13T20:10:21.496Z,38.78
2022-11-13T20:13:09.861Z,42.40
2022-11-13T20:15:58.935Z,39.58
2022-11-13T20:18:45.968Z,33.85
2022-11-13T20:21:32.382Z,38.97
2022-11-13T20:24:18.947Z,37.03
2022-11-13T20:27:05.888Z,45.38
2022-11-13T20:29:54.753Z,41.40
2022-11-13T20:32:41.380Z,31.38
2022-11-13T20:35:27.814Z,35.40
2022-11-13T20:38:14.607Z,36.78
2022-11-13T20:41:05.413Z,36.35
2022-11-13T20:43:53.186Z,35.05
2022-11-13T20:46:40.903Z,31.23
2022-11-13T20:49:27.619Z,29.05
2022-11-13T20:52:14.133Z,34.03
2022-11-13T20:55:00.740Z,27.00
2022-11-13T20:57:47.436Z,32.85
2022-11-13T21:00:34.069Z,38.03
2022-11-13T21:03:21.970Z,31.60
2022-11-13T21:06:10.178Z,33.10
2022-11-13T21:08:57.986Z,32.95
2022-11-13T21:11:44.503Z,33.58
2022-11-13T21:14:31.074Z,29.58
2022-11-13T21:17:20.866Z,37.95
2022-11-13T21:20:10.350Z,29.05
2022-11-13T21:22:57.665Z,29.92
2022-11-13T21:25:44.575Z,34.38
2022-11-13T21:28:33.671Z,35.58
2022-11-13T21:31:21.936Z,36.25
2022-11-13T21:34:11.493Z,30.98
2022-11-13T21:37:02.516Z,35.40
2022-11-13T21:39:49.422Z,27.67
2022-11-13T21:42:35.920Z,32.08
2022-11-13T21:45:25.570Z,33.10
2022-11-13T21:48:12.111Z,31.67
2022-11-13T21:50:59.266Z,24.17
2022-11-13T21:53:47.613Z,25.08
2022-11-13T21:56:37.301Z,25.13
2022-11-13T21:59:23.617Z,28.60
2022-11-13T22:02:13.052Z,32.45
2022-11-13T22:04:59.738Z,27.77
2022-11-13T22:07:46.328Z,26.27
2022-11-13T22:10:34.309Z,26.98
2022-11-13T22:13:21.023Z,32.33
2022-11-13T22:16:09.255Z,28.75
2022-11-13T22:18:56.453Z,27.20
2022-11-13T22:21:43.837Z,28.67
2022-11-13T22:24:30.804Z,23.58
2022-11-13T22:27:18.638Z,25.70
2022-11-13T22:30:05.841Z,30.17
2022-11-13T22:32:52.503Z,24.73
2022-11-13T22:35:39.210Z,29.58
2022-11-13T22:38:25.773Z,28.48
2022-11-13T22:41:18.790Z,25.48
2022-11-13T22:44:16.401Z,26.15
2022-11-13T22:47:02.871Z,25.85
2022-11-13T22:49:49.585Z,28.95
2022-11-13T22:52:36.424Z,26.65
2022-11-13T22:55:22.762Z,27.42
2022-11-13T22:58:09.310Z,26.83
2022-11-13T23:00:57.489Z,29.52
2022-11-13T23:03:46.383Z,29.38
2022-11-13T23:06:34.888Z,26.65
2022-11-13T23:09:21.573Z,27.48
2022-11-13T23:12:09.507Z,28.80
2022-11-13T23:14:56.021Z,26.10
2022-11-13T23:17:43.693Z,30.30
2022-11-13T23:20:30.326Z,25.35
2022-11-13T23:23:17.621Z,29.13
2022-11-13T23:26:04.303Z,29.67
2022-11-13T23:28:51.036Z,34.22
2022-11-13T23:31:37.658Z,32.35
2022-11-13T23:34:45.301Z,27.63
2022-11-13T23:37:32.162Z,33.13
2022-11-13T23:40:18.941Z,28.55
2022-11-13T23:43:05.439Z,29.58
2022-11-13T23:45:52.130Z,29.23
2022-11-13T23:48:40.126Z,31.35
2022-11-13T23:51:28.499Z,27.10
2022-11-13T23:54:15.353Z,28.17
2022-11-13T23:57:01.825Z,28.20
2022-11-13T23:59:48.728Z,34.40
